78TX weather

Baylor University Medical Center Grapevine Heliport
Grapevine, Texas, United States

Public forecast

Using degrees Fahrenheit for public forecast. Weather courtesy of forecast.io.

METAR (pilot weather report)

Closest report is Dallas Fort Worth International Airport, 3.6 nm (6.6 km) SE. Retrieved 2019/07/20 16:53 UTC (57 minutes ago):

KDFW 201653Z 16013KT 10SM FEW030 FEW300 32/21 A2995 RMK AO2 SLP130 T03220206

TAF (pilot weather forecast)

Closest forecast is Dallas Fort Worth International Airport, 3.6 nm (6.6 km) SE. Retrieved 2019/07/20 12:27 UTC (5 hours ago):

TAF KDFW 201125Z 2012/2118 17015KT P6SM FEW250